sensor_id;sensor_type;location;lat;lon;timestamp;P1;durP1;ratioP1;P2;durP2;ratioP2
21152;SDS011;10734;44.792;20.482;2023-04-16T00:00:51;11.25;;;5.80;;
21152;SDS011;10734;44.792;20.482;2023-04-16T00:03:18;13.77;;;6.03;;
21152;SDS011;10734;44.792;20.482;2023-04-16T00:05:46;11.68;;;6.45;;
21152;SDS011;10734;44.792;20.482;2023-04-16T00:08:15;11.10;;;5.63;;
21152;SDS011;10734;44.792;20.482;2023-04-16T00:10:43;11.02;;;5.65;;
21152;SDS011;10734;44.792;20.482;2023-04-16T00:13:11;10.40;;;6.20;;
21152;SDS011;10734;44.792;20.482;2023-04-16T00:15:39;11.95;;;5.55;;
21152;SDS011;10734;44.792;20.482;2023-04-16T00:18:06;10.02;;;5.63;;
21152;SDS011;10734;44.792;20.482;2023-04-16T00:20:34;16.10;;;6.93;;
21152;SDS011;10734;44.792;20.482;2023-04-16T00:23:02;10.95;;;5.75;;
21152;SDS011;10734;44.792;20.482;2023-04-16T00:25:29;8.70;;;5.20;;
21152;SDS011;10734;44.792;20.482;2023-04-16T00:27:56;11.05;;;5.50;;
21152;SDS011;10734;44.792;20.482;2023-04-16T00:30:24;12.20;;;5.97;;
21152;SDS011;10734;44.792;20.482;2023-04-16T00:32:51;16.77;;;7.25;;
21152;SDS011;10734;44.792;20.482;2023-04-16T00:35:19;10.35;;;6.25;;
21152;SDS011;10734;44.792;20.482;2023-04-16T00:37:47;13.02;;;7.03;;
21152;SDS011;10734;44.792;20.482;2023-04-16T00:40:13;14.55;;;7.28;;
21152;SDS011;10734;44.792;20.482;2023-04-16T00:42:40;14.07;;;7.00;;
21152;SDS011;10734;44.792;20.482;2023-04-16T00:45:07;15.32;;;7.45;;
21152;SDS011;10734;44.792;20.482;2023-04-16T00:47:34;12.65;;;7.00;;
21152;SDS011;10734;44.792;20.482;2023-04-16T00:50:01;15.20;;;7.38;;
21152;SDS011;10734;44.792;20.482;2023-04-16T00:52:28;15.95;;;7.13;;
21152;SDS011;10734;44.792;20.482;2023-04-16T00:54:55;12.00;;;7.10;;
21152;SDS011;10734;44.792;20.482;2023-04-16T00:57:22;10.90;;;6.47;;
21152;SDS011;10734;44.792;20.482;2023-04-16T00:59:49;14.27;;;6.65;;
21152;SDS011;10734;44.792;20.482;2023-04-16T01:02:16;14.35;;;7.63;;
21152;SDS011;10734;44.792;20.482;2023-04-16T01:04:43;14.20;;;7.35;;
21152;SDS011;10734;44.792;20.482;2023-04-16T01:07:09;14.18;;;7.68;;
21152;SDS011;10734;44.792;20.482;2023-04-16T01:09:36;10.23;;;6.30;;
21152;SDS011;10734;44.792;20.482;2023-04-16T01:12:02;14.73;;;7.05;;
21152;SDS011;10734;44.792;20.482;2023-04-16T01:14:29;16.45;;;7.55;;
21152;SDS011;10734;44.792;20.482;2023-04-16T01:19:28;14.90;;;7.65;;
21152;SDS011;10734;44.792;20.482;2023-04-16T01:21:57;17.00;;;8.18;;
21152;SDS011;10734;44.792;20.482;2023-04-16T01:24:24;17.67;;;8.00;;
21152;SDS011;10734;44.792;20.482;2023-04-16T01:26:50;18.75;;;8.70;;
21152;SDS011;10734;44.792;20.482;2023-04-16T01:29:17;17.33;;;8.23;;
21152;SDS011;10734;44.792;20.482;2023-04-16T01:31:44;16.20;;;8.30;;
21152;SDS011;10734;44.792;20.482;2023-04-16T01:34:12;18.33;;;8.63;;
21152;SDS011;10734;44.792;20.482;2023-04-16T01:36:38;17.65;;;9.20;;
21152;SDS011;10734;44.792;20.482;2023-04-16T01:39:04;19.50;;;9.23;;
21152;SDS011;10734;44.792;20.482;2023-04-16T01:41:31;16.10;;;8.35;;
21152;SDS011;10734;44.792;20.482;2023-04-16T01:43:57;17.90;;;8.45;;
21152;SDS011;10734;44.792;20.482;2023-04-16T01:46:27;18.23;;;8.68;;
21152;SDS011;10734;44.792;20.482;2023-04-16T01:48:54;20.15;;;9.20;;
21152;SDS011;10734;44.792;20.482;2023-04-16T01:51:21;16.33;;;8.57;;
21152;SDS011;10734;44.792;20.482;2023-04-16T01:53:48;25.13;;;8.57;;
21152;SDS011;10734;44.792;20.482;2023-04-16T01:56:15;15.35;;;8.13;;
21152;SDS011;10734;44.792;20.482;2023-04-16T01:58:41;16.90;;;8.25;;
21152;SDS011;10734;44.792;20.482;2023-04-16T02:01:08;15.27;;;7.55;;
21152;SDS011;10734;44.792;20.482;2023-04-16T02:03:35;17.20;;;8.05;;
21152;SDS011;10734;44.792;20.482;2023-04-16T02:06:02;17.70;;;8.18;;
21152;SDS011;10734;44.792;20.482;2023-04-16T02:08:28;17.55;;;8.27;;
21152;SDS011;10734;44.792;20.482;2023-04-16T02:10:55;17.00;;;7.82;;
21152;SDS011;10734;44.792;20.482;2023-04-16T02:13:21;17.60;;;8.50;;
21152;SDS011;10734;44.792;20.482;2023-04-16T02:15:49;21.23;;;8.85;;
21152;SDS011;10734;44.792;20.482;2023-04-16T02:18:15;16.00;;;7.75;;
21152;SDS011;10734;44.792;20.482;2023-04-16T02:20:42;16.52;;;8.35;;
21152;SDS011;10734;44.792;20.482;2023-04-16T02:23:09;16.52;;;7.97;;
21152;SDS011;10734;44.792;20.482;2023-04-16T02:25:43;11.77;;;6.97;;
21152;SDS011;10734;44.792;20.482;2023-04-16T02:28:10;13.40;;;7.22;;
21152;SDS011;10734;44.792;20.482;2023-04-16T02:30:37;17.00;;;8.95;;
21152;SDS011;10734;44.792;20.482;2023-04-16T02:33:04;17.60;;;8.77;;
21152;SDS011;10734;44.792;20.482;2023-04-16T02:35:35;16.73;;;7.78;;
21152;SDS011;10734;44.792;20.482;2023-04-16T02:38:02;15.00;;;7.70;;
21152;SDS011;10734;44.792;20.482;2023-04-16T02:40:29;15.65;;;7.38;;
21152;SDS011;10734;44.792;20.482;2023-04-16T02:42:56;16.20;;;7.80;;
21152;SDS011;10734;44.792;20.482;2023-04-16T02:45:23;11.68;;;6.57;;
21152;SDS011;10734;44.792;20.482;2023-04-16T02:47:50;15.32;;;8.02;;
21152;SDS011;10734;44.792;20.482;2023-04-16T02:50:16;13.70;;;7.18;;
21152;SDS011;10734;44.792;20.482;2023-04-16T02:52:43;12.90;;;7.68;;
21152;SDS011;10734;44.792;20.482;2023-04-16T02:55:10;17.05;;;7.90;;
21152;SDS011;10734;44.792;20.482;2023-04-16T02:57:36;16.27;;;7.97;;
21152;SDS011;10734;44.792;20.482;2023-04-16T03:00:03;16.05;;;7.20;;
21152;SDS011;10734;44.792;20.482;2023-04-16T03:02:30;16.27;;;8.77;;
21152;SDS011;10734;44.792;20.482;2023-04-16T03:04:57;13.45;;;8.10;;
21152;SDS011;10734;44.792;20.482;2023-04-16T03:07:23;16.05;;;8.32;;
21152;SDS011;10734;44.792;20.482;2023-04-16T03:09:50;17.77;;;8.23;;
21152;SDS011;10734;44.792;20.482;2023-04-16T03:12:17;15.70;;;8.02;;
21152;SDS011;10734;44.792;20.482;2023-04-16T03:14:43;22.35;;;8.75;;
21152;SDS011;10734;44.792;20.482;2023-04-16T03:17:10;20.95;;;9.48;;
21152;SDS011;10734;44.792;20.482;2023-04-16T03:19:36;14.50;;;7.45;;
21152;SDS011;10734;44.792;20.482;2023-04-16T03:22:03;14.43;;;8.70;;
21152;SDS011;10734;44.792;20.482;2023-04-16T03:24:30;15.82;;;7.80;;
21152;SDS011;10734;44.792;20.482;2023-04-16T03:26:57;16.00;;;8.38;;
21152;SDS011;10734;44.792;20.482;2023-04-16T03:29:24;19.25;;;8.07;;
21152;SDS011;10734;44.792;20.482;2023-04-16T03:31:52;17.42;;;8.73;;
21152;SDS011;10734;44.792;20.482;2023-04-16T03:34:18;14.70;;;8.32;;
21152;SDS011;10734;44.792;20.482;2023-04-16T03:36:45;16.95;;;8.55;;
21152;SDS011;10734;44.792;20.482;2023-04-16T03:39:11;18.33;;;9.40;;
21152;SDS011;10734;44.792;20.482;2023-04-16T03:41:38;14.40;;;8.05;;
21152;SDS011;10734;44.792;20.482;2023-04-16T03:44:04;12.63;;;7.68;;
21152;SDS011;10734;44.792;20.482;2023-04-16T03:46:31;16.10;;;8.48;;
21152;SDS011;10734;44.792;20.482;2023-04-16T03:48:57;17.48;;;8.48;;
21152;SDS011;10734;44.792;20.482;2023-04-16T03:51:24;15.75;;;8.48;;
21152;SDS011;10734;44.792;20.482;2023-04-16T03:53:51;16.38;;;9.02;;
21152;SDS011;10734;44.792;20.482;2023-04-16T03:56:18;14.95;;;8.57;;
21152;SDS011;10734;44.792;20.482;2023-04-16T03:58:44;14.88;;;8.10;;
21152;SDS011;10734;44.792;20.482;2023-04-16T04:01:11;22.55;;;9.57;;
21152;SDS011;10734;44.792;20.482;2023-04-16T04:03:37;17.73;;;9.13;;
21152;SDS011;10734;44.792;20.482;2023-04-16T04:06:07;18.73;;;9.52;;
21152;SDS011;10734;44.792;20.482;2023-04-16T04:08:34;19.25;;;8.63;;
21152;SDS011;10734;44.792;20.482;2023-04-16T04:11:01;20.40;;;9.65;;
21152;SDS011;10734;44.792;20.482;2023-04-16T04:13:27;15.98;;;8.57;;
21152;SDS011;10734;44.792;20.482;2023-04-16T04:15:54;19.20;;;8.80;;
21152;SDS011;10734;44.792;20.482;2023-04-16T04:18:20;17.63;;;8.65;;
21152;SDS011;10734;44.792;20.482;2023-04-16T04:20:47;16.58;;;8.70;;
21152;SDS011;10734;44.792;20.482;2023-04-16T04:23:13;17.30;;;8.68;;
21152;SDS011;10734;44.792;20.482;2023-04-16T04:25:40;16.10;;;8.25;;
21152;SDS011;10734;44.792;20.482;2023-04-16T04:28:06;14.25;;;7.75;;
21152;SDS011;10734;44.792;20.482;2023-04-16T04:30:33;13.73;;;6.82;;
21152;SDS011;10734;44.792;20.482;2023-04-16T04:33:01;11.52;;;6.93;;
21152;SDS011;10734;44.792;20.482;2023-04-16T04:35:27;15.75;;;7.88;;
21152;SDS011;10734;44.792;20.482;2023-04-16T04:37:54;19.48;;;8.15;;
21152;SDS011;10734;44.792;20.482;2023-04-16T04:40:21;15.55;;;8.52;;
21152;SDS011;10734;44.792;20.482;2023-04-16T04:42:47;16.95;;;8.60;;
21152;SDS011;10734;44.792;20.482;2023-04-16T04:45:14;16.00;;;8.00;;
21152;SDS011;10734;44.792;20.482;2023-04-16T04:47:40;19.05;;;8.40;;
21152;SDS011;10734;44.792;20.482;2023-04-16T04:50:07;15.90;;;8.93;;
21152;SDS011;10734;44.792;20.482;2023-04-16T04:52:34;14.38;;;7.97;;
21152;SDS011;10734;44.792;20.482;2023-04-16T04:55:01;14.15;;;7.93;;
21152;SDS011;10734;44.792;20.482;2023-04-16T04:57:27;13.68;;;8.10;;
21152;SDS011;10734;44.792;20.482;2023-04-16T04:59:54;15.98;;;8.73;;
21152;SDS011;10734;44.792;20.482;2023-04-16T05:02:21;22.27;;;10.10;;
21152;SDS011;10734;44.792;20.482;2023-04-16T05:04:47;21.02;;;11.10;;
21152;SDS011;10734;44.792;20.482;2023-04-16T05:07:14;22.85;;;11.43;;
21152;SDS011;10734;44.792;20.482;2023-04-16T05:09:41;20.52;;;12.05;;
21152;SDS011;10734;44.792;20.482;2023-04-16T05:12:07;22.95;;;11.52;;
21152;SDS011;10734;44.792;20.482;2023-04-16T05:14:33;23.55;;;11.45;;
21152;SDS011;10734;44.792;20.482;2023-04-16T05:17:01;27.08;;;12.18;;
21152;SDS011;10734;44.792;20.482;2023-04-16T05:19:28;21.77;;;10.85;;
21152;SDS011;10734;44.792;20.482;2023-04-16T05:21:54;19.90;;;9.73;;
21152;SDS011;10734;44.792;20.482;2023-04-16T05:24:21;18.27;;;10.43;;
21152;SDS011;10734;44.792;20.482;2023-04-16T05:26:48;22.08;;;10.50;;
21152;SDS011;10734;44.792;20.482;2023-04-16T05:29:14;17.88;;;10.30;;
21152;SDS011;10734;44.792;20.482;2023-04-16T05:31:41;15.10;;;9.38;;
21152;SDS011;10734;44.792;20.482;2023-04-16T05:34:07;21.02;;;10.25;;
21152;SDS011;10734;44.792;20.482;2023-04-16T05:36:34;20.45;;;12.32;;
21152;SDS011;10734;44.792;20.482;2023-04-16T05:39:00;25.45;;;11.77;;
21152;SDS011;10734;44.792;20.482;2023-04-16T05:41:27;18.45;;;9.85;;
21152;SDS011;10734;44.792;20.482;2023-04-16T05:43:53;25.85;;;11.45;;
21152;SDS011;10734;44.792;20.482;2023-04-16T05:46:20;19.48;;;10.73;;
21152;SDS011;10734;44.792;20.482;2023-04-16T05:48:46;21.75;;;10.77;;
21152;SDS011;10734;44.792;20.482;2023-04-16T05:51:13;20.63;;;9.73;;
21152;SDS011;10734;44.792;20.482;2023-04-16T05:53:39;18.05;;;10.13;;
21152;SDS011;10734;44.792;20.482;2023-04-16T05:56:06;19.33;;;10.40;;
21152;SDS011;10734;44.792;20.482;2023-04-16T05:58:33;17.63;;;9.32;;
21152;SDS011;10734;44.792;20.482;2023-04-16T06:00:59;20.30;;;9.32;;
21152;SDS011;10734;44.792;20.482;2023-04-16T06:03:26;20.25;;;10.57;;
21152;SDS011;10734;44.792;20.482;2023-04-16T06:05:53;15.45;;;9.35;;
21152;SDS011;10734;44.792;20.482;2023-04-16T06:08:19;20.27;;;10.15;;
21152;SDS011;10734;44.792;20.482;2023-04-16T06:10:46;17.17;;;9.13;;
21152;SDS011;10734;44.792;20.482;2023-04-16T06:13:12;17.58;;;10.32;;
21152;SDS011;10734;44.792;20.482;2023-04-16T06:15:39;17.40;;;9.63;;
21152;SDS011;10734;44.792;20.482;2023-04-16T06:18:06;17.33;;;9.63;;
21152;SDS011;10734;44.792;20.482;2023-04-16T06:20:32;16.30;;;9.73;;
21152;SDS011;10734;44.792;20.482;2023-04-16T06:22:59;22.50;;;10.40;;
21152;SDS011;10734;44.792;20.482;2023-04-16T06:25:25;15.50;;;9.32;;
21152;SDS011;10734;44.792;20.482;2023-04-16T06:27:52;14.40;;;8.65;;
21152;SDS011;10734;44.792;20.482;2023-04-16T06:30:18;21.95;;;10.43;;
21152;SDS011;10734;44.792;20.482;2023-04-16T06:32:45;15.60;;;9.85;;
21152;SDS011;10734;44.792;20.482;2023-04-16T06:35:12;18.42;;;10.88;;
21152;SDS011;10734;44.792;20.482;2023-04-16T06:37:38;22.85;;;12.45;;
21152;SDS011;10734;44.792;20.482;2023-04-16T06:40:05;22.05;;;12.23;;
21152;SDS011;10734;44.792;20.482;2023-04-16T06:42:32;18.05;;;10.88;;
21152;SDS011;10734;44.792;20.482;2023-04-16T06:44:58;21.33;;;11.20;;
21152;SDS011;10734;44.792;20.482;2023-04-16T06:47:27;22.60;;;11.68;;
21152;SDS011;10734;44.792;20.482;2023-04-16T06:49:56;18.08;;;11.52;;
21152;SDS011;10734;44.792;20.482;2023-04-16T06:52:23;20.58;;;11.00;;
21152;SDS011;10734;44.792;20.482;2023-04-16T06:54:49;14.05;;;9.65;;
21152;SDS011;10734;44.792;20.482;2023-04-16T06:57:16;16.85;;;10.43;;
21152;SDS011;10734;44.792;20.482;2023-04-16T06:59:42;15.95;;;9.50;;
21152;SDS011;10734;44.792;20.482;2023-04-16T07:02:09;19.17;;;11.23;;
21152;SDS011;10734;44.792;20.482;2023-04-16T07:04:36;16.05;;;8.77;;
21152;SDS011;10734;44.792;20.482;2023-04-16T07:07:02;18.48;;;9.38;;
21152;SDS011;10734;44.792;20.482;2023-04-16T07:09:29;14.52;;;9.07;;
21152;SDS011;10734;44.792;20.482;2023-04-16T07:11:55;17.73;;;9.85;;
21152;SDS011;10734;44.792;20.482;2023-04-16T07:14:22;18.20;;;9.65;;
21152;SDS011;10734;44.792;20.482;2023-04-16T07:16:48;22.05;;;9.85;;
21152;SDS011;10734;44.792;20.482;2023-04-16T07:19:15;16.33;;;10.00;;
21152;SDS011;10734;44.792;20.482;2023-04-16T07:21:41;17.10;;;9.75;;
21152;SDS011;10734;44.792;20.482;2023-04-16T07:24:09;17.38;;;9.23;;
21152;SDS011;10734;44.792;20.482;2023-04-16T07:26:36;18.45;;;9.18;;
21152;SDS011;10734;44.792;20.482;2023-04-16T07:29:03;19.88;;;9.15;;
21152;SDS011;10734;44.792;20.482;2023-04-16T07:31:29;16.42;;;8.73;;
21152;SDS011;10734;44.792;20.482;2023-04-16T07:33:57;16.88;;;9.02;;
21152;SDS011;10734;44.792;20.482;2023-04-16T07:36:23;15.02;;;9.18;;
21152;SDS011;10734;44.792;20.482;2023-04-16T07:38:50;16.25;;;10.00;;
21152;SDS011;10734;44.792;20.482;2023-04-16T07:41:16;17.75;;;9.38;;
21152;SDS011;10734;44.792;20.482;2023-04-16T07:43:43;17.10;;;9.32;;
21152;SDS011;10734;44.792;20.482;2023-04-16T07:46:09;16.13;;;9.43;;
21152;SDS011;10734;44.792;20.482;2023-04-16T07:48:36;22.15;;;10.25;;
21152;SDS011;10734;44.792;20.482;2023-04-16T07:51:02;20.35;;;8.95;;
21152;SDS011;10734;44.792;20.482;2023-04-16T07:53:29;15.43;;;8.00;;
21152;SDS011;10734;44.792;20.482;2023-04-16T07:55:55;11.50;;;6.20;;
21152;SDS011;10734;44.792;20.482;2023-04-16T07:58:22;7.45;;;3.20;;
21152;SDS011;10734;44.792;20.482;2023-04-16T08:00:48;6.47;;;2.95;;
21152;SDS011;10734;44.792;20.482;2023-04-16T08:03:16;6.38;;;3.35;;
21152;SDS011;10734;44.792;20.482;2023-04-16T08:05:43;8.10;;;3.10;;
21152;SDS011;10734;44.792;20.482;2023-04-16T08:08:10;5.00;;;3.40;;
21152;SDS011;10734;44.792;20.482;2023-04-16T08:10:37;5.03;;;2.80;;
21152;SDS011;10734;44.792;20.482;2023-04-16T08:13:04;8.32;;;3.10;;
21152;SDS011;10734;44.792;20.482;2023-04-16T08:15:30;8.35;;;3.55;;
21152;SDS011;10734;44.792;20.482;2023-04-16T08:17:57;5.20;;;3.17;;
21152;SDS011;10734;44.792;20.482;2023-04-16T08:20:24;5.88;;;2.95;;
21152;SDS011;10734;44.792;20.482;2023-04-16T08:22:52;4.72;;;2.65;;
21152;SDS011;10734;44.792;20.482;2023-04-16T08:25:18;5.82;;;3.05;;
21152;SDS011;10734;44.792;20.482;2023-04-16T08:27:45;8.98;;;3.08;;
21152;SDS011;10734;44.792;20.482;2023-04-16T08:30:12;6.15;;;3.65;;
21152;SDS011;10734;44.792;20.482;2023-04-16T08:32:38;7.43;;;3.30;;
21152;SDS011;10734;44.792;20.482;2023-04-16T08:35:05;5.60;;;2.67;;
21152;SDS011;10734;44.792;20.482;2023-04-16T08:37:32;6.00;;;3.00;;
21152;SDS011;10734;44.792;20.482;2023-04-16T08:39:58;5.97;;;3.42;;
21152;SDS011;10734;44.792;20.482;2023-04-16T08:42:29;6.47;;;2.80;;
21152;SDS011;10734;44.792;20.482;2023-04-16T08:47:37;5.35;;;3.10;;
21152;SDS011;10734;44.792;20.482;2023-04-16T08:50:04;6.53;;;3.00;;
21152;SDS011;10734;44.792;20.482;2023-04-16T08:52:31;5.15;;;2.80;;
21152;SDS011;10734;44.792;20.482;2023-04-16T08:55:01;5.60;;;3.10;;
21152;SDS011;10734;44.792;20.482;2023-04-16T08:57:29;4.45;;;2.10;;
21152;SDS011;10734;44.792;20.482;2023-04-16T08:59:59;10.13;;;2.30;;
21152;SDS011;10734;44.792;20.482;2023-04-16T09:02:26;3.72;;;2.00;;
21152;SDS011;10734;44.792;20.482;2023-04-16T09:04:53;5.97;;;2.42;;
21152;SDS011;10734;44.792;20.482;2023-04-16T09:07:20;4.95;;;2.20;;
21152;SDS011;10734;44.792;20.482;2023-04-16T09:09:47;4.15;;;2.20;;
21152;SDS011;10734;44.792;20.482;2023-04-16T09:12:15;5.15;;;2.55;;
21152;SDS011;10734;44.792;20.482;2023-04-16T09:14:42;3.97;;;1.92;;
21152;SDS011;10734;44.792;20.482;2023-04-16T09:17:12;4.65;;;2.30;;
21152;SDS011;10734;44.792;20.482;2023-04-16T09:19:39;6.40;;;1.92;;
21152;SDS011;10734;44.792;20.482;2023-04-16T09:22:06;5.43;;;2.10;;
21152;SDS011;10734;44.792;20.482;2023-04-16T09:24:33;5.22;;;2.03;;
21152;SDS011;10734;44.792;20.482;2023-04-16T09:26:59;6.15;;;2.80;;
21152;SDS011;10734;44.792;20.482;2023-04-16T09:29:33;7.45;;;1.98;;
21152;SDS011;10734;44.792;20.482;2023-04-16T09:32:01;6.18;;;1.98;;
21152;SDS011;10734;44.792;20.482;2023-04-16T09:34:30;5.47;;;2.00;;
21152;SDS011;10734;44.792;20.482;2023-04-16T09:37:14;2.60;;;1.65;;
21152;SDS011;10734;44.792;20.482;2023-04-16T09:39:42;7.07;;;1.80;;
21152;SDS011;10734;44.792;20.482;2023-04-16T09:42:09;6.20;;;1.52;;
21152;SDS011;10734;44.792;20.482;2023-04-16T09:44:36;6.97;;;2.20;;
21152;SDS011;10734;44.792;20.482;2023-04-16T09:47:06;7.00;;;1.40;;
21152;SDS011;10734;44.792;20.482;2023-04-16T09:49:34;4.38;;;1.73;;
21152;SDS011;10734;44.792;20.482;2023-04-16T09:52:03;5.20;;;1.40;;
21152;SDS011;10734;44.792;20.482;2023-04-16T09:54:34;2.00;;;1.27;;
21152;SDS011;10734;44.792;20.482;2023-04-16T09:57:00;5.57;;;2.22;;
21152;SDS011;10734;44.792;20.482;2023-04-16T09:59:27;2.80;;;1.50;;
21152;SDS011;10734;44.792;20.482;2023-04-16T10:01:58;5.45;;;1.55;;
21152;SDS011;10734;44.792;20.482;2023-04-16T10:04:48;3.97;;;1.42;;
21152;SDS011;10734;44.792;20.482;2023-04-16T10:07:15;3.90;;;1.63;;
21152;SDS011;10734;44.792;20.482;2023-04-16T10:09:42;4.82;;;1.45;;
21152;SDS011;10734;44.792;20.482;2023-04-16T10:12:08;3.70;;;1.13;;
21152;SDS011;10734;44.792;20.482;2023-04-16T10:14:35;3.78;;;1.30;;
21152;SDS011;10734;44.792;20.482;2023-04-16T10:17:02;2.78;;;1.60;;
21152;SDS011;10734;44.792;20.482;2023-04-16T10:19:29;1.65;;;1.33;;
21152;SDS011;10734;44.792;20.482;2023-04-16T10:21:57;4.18;;;1.88;;
21152;SDS011;10734;44.792;20.482;2023-04-16T10:24:32;2.40;;;1.50;;
21152;SDS011;10734;44.792;20.482;2023-04-16T10:26:59;3.72;;;1.77;;
21152;SDS011;10734;44.792;20.482;2023-04-16T10:29:27;3.80;;;1.77;;
21152;SDS011;10734;44.792;20.482;2023-04-16T10:31:54;5.00;;;1.80;;
21152;SDS011;10734;44.792;20.482;2023-04-16T10:34:21;3.25;;;1.75;;
21152;SDS011;10734;44.792;20.482;2023-04-16T10:36:49;4.25;;;1.50;;
21152;SDS011;10734;44.792;20.482;2023-04-16T10:39:19;5.90;;;1.90;;
21152;SDS011;10734;44.792;20.482;2023-04-16T10:41:46;4.72;;;1.58;;
21152;SDS011;10734;44.792;20.482;2023-04-16T10:44:14;3.70;;;1.52;;
21152;SDS011;10734;44.792;20.482;2023-04-16T10:46:42;2.50;;;1.20;;
21152;SDS011;10734;44.792;20.482;2023-04-16T10:51:38;4.93;;;2.10;;
21152;SDS011;10734;44.792;20.482;2023-04-16T10:56:31;4.05;;;2.00;;
21152;SDS011;10734;44.792;20.482;2023-04-16T10:58:58;7.55;;;1.73;;
21152;SDS011;10734;44.792;20.482;2023-04-16T11:01:28;2.50;;;1.00;;
21152;SDS011;10734;44.792;20.482;2023-04-16T11:03:54;2.47;;;1.15;;
21152;SDS011;10734;44.792;20.482;2023-04-16T11:06:25;6.47;;;1.80;;
21152;SDS011;10734;44.792;20.482;2023-04-16T11:08:52;4.63;;;1.52;;
21152;SDS011;10734;44.792;20.482;2023-04-16T11:11:20;4.28;;;1.38;;
21152;SDS011;10734;44.792;20.482;2023-04-16T11:13:47;5.15;;;1.65;;
21152;SDS011;10734;44.792;20.482;2023-04-16T11:16:14;2.72;;;1.27;;
21152;SDS011;10734;44.792;20.482;2023-04-16T11:18:41;4.43;;;1.40;;
21152;SDS011;10734;44.792;20.482;2023-04-16T11:21:17;5.40;;;1.75;;
21152;SDS011;10734;44.792;20.482;2023-04-16T11:23:47;2.83;;;1.25;;
21152;SDS011;10734;44.792;20.482;2023-04-16T11:26:24;4.18;;;1.48;;
21152;SDS011;10734;44.792;20.482;2023-04-16T11:28:52;4.20;;;1.60;;
21152;SDS011;10734;44.792;20.482;2023-04-16T11:31:18;4.22;;;1.30;;
21152;SDS011;10734;44.792;20.482;2023-04-16T11:33:45;6.90;;;1.67;;
21152;SDS011;10734;44.792;20.482;2023-04-16T11:36:12;3.00;;;1.23;;
21152;SDS011;10734;44.792;20.482;2023-04-16T11:38:39;3.28;;;2.10;;
21152;SDS011;10734;44.792;20.482;2023-04-16T11:41:07;3.35;;;1.77;;
21152;SDS011;10734;44.792;20.482;2023-04-16T11:43:33;2.85;;;1.70;;
21152;SDS011;10734;44.792;20.482;2023-04-16T11:46:01;3.97;;;1.50;;
21152;SDS011;10734;44.792;20.482;2023-04-16T11:48:44;3.88;;;1.55;;
21152;SDS011;10734;44.792;20.482;2023-04-16T11:51:12;2.67;;;1.50;;
21152;SDS011;10734;44.792;20.482;2023-04-16T11:53:48;3.75;;;1.50;;
21152;SDS011;10734;44.792;20.482;2023-04-16T11:56:23;5.75;;;1.63;;
21152;SDS011;10734;44.792;20.482;2023-04-16T12:01:36;3.15;;;1.50;;
21152;SDS011;10734;44.792;20.482;2023-04-16T12:04:03;4.75;;;2.13;;
21152;SDS011;10734;44.792;20.482;2023-04-16T12:06:30;9.20;;;2.10;;
21152;SDS011;10734;44.792;20.482;2023-04-16T12:09:00;4.30;;;1.83;;
21152;SDS011;10734;44.792;20.482;2023-04-16T12:11:46;3.63;;;2.10;;
21152;SDS011;10734;44.792;20.482;2023-04-16T12:14:13;6.55;;;2.35;;
21152;SDS011;10734;44.792;20.482;2023-04-16T12:16:39;2.33;;;2.13;;
21152;SDS011;10734;44.792;20.482;2023-04-16T12:19:06;3.40;;;1.48;;
21152;SDS011;10734;44.792;20.482;2023-04-16T12:21:39;2.35;;;1.48;;
21152;SDS011;10734;44.792;20.482;2023-04-16T12:24:07;1.90;;;1.40;;
21152;SDS011;10734;44.792;20.482;2023-04-16T12:26:40;2.83;;;1.30;;
21152;SDS011;10734;44.792;20.482;2023-04-16T12:31:40;3.60;;;1.60;;
21152;SDS011;10734;44.792;20.482;2023-04-16T12:34:06;2.08;;;1.35;;
21152;SDS011;10734;44.792;20.482;2023-04-16T12:36:33;3.05;;;2.08;;
21152;SDS011;10734;44.792;20.482;2023-04-16T12:38:59;3.20;;;2.05;;
21152;SDS011;10734;44.792;20.482;2023-04-16T12:41:26;5.32;;;1.63;;
21152;SDS011;10734;44.792;20.482;2023-04-16T12:44:01;2.00;;;1.20;;
21152;SDS011;10734;44.792;20.482;2023-04-16T12:46:28;4.22;;;1.55;;
21152;SDS011;10734;44.792;20.482;2023-04-16T12:48:54;3.67;;;1.48;;
21152;SDS011;10734;44.792;20.482;2023-04-16T12:51:22;4.35;;;1.73;;
21152;SDS011;10734;44.792;20.482;2023-04-16T12:53:49;2.95;;;1.40;;
21152;SDS011;10734;44.792;20.482;2023-04-16T12:56:15;3.20;;;1.40;;
21152;SDS011;10734;44.792;20.482;2023-04-16T12:58:42;3.25;;;1.48;;
21152;SDS011;10734;44.792;20.482;2023-04-16T13:01:08;6.78;;;2.20;;
21152;SDS011;10734;44.792;20.482;2023-04-16T13:03:37;3.15;;;1.27;;
21152;SDS011;10734;44.792;20.482;2023-04-16T13:06:05;3.33;;;1.70;;
21152;SDS011;10734;44.792;20.482;2023-04-16T13:08:35;1.77;;;1.50;;
21152;SDS011;10734;44.792;20.482;2023-04-16T13:11:03;3.00;;;2.03;;
21152;SDS011;10734;44.792;20.482;2023-04-16T13:13:35;4.20;;;2.10;;
21152;SDS011;10734;44.792;20.482;2023-04-16T13:16:14;3.35;;;1.38;;
21152;SDS011;10734;44.792;20.482;2023-04-16T13:18:49;2.15;;;1.27;;
21152;SDS011;10734;44.792;20.482;2023-04-16T13:21:16;3.47;;;1.30;;
21152;SDS011;10734;44.792;20.482;2023-04-16T13:23:47;4.00;;;1.30;;
21152;SDS011;10734;44.792;20.482;2023-04-16T13:26:14;2.65;;;1.05;;
21152;SDS011;10734;44.792;20.482;2023-04-16T13:28:43;3.67;;;1.52;;
21152;SDS011;10734;44.792;20.482;2023-04-16T13:31:12;2.25;;;1.27;;
21152;SDS011;10734;44.792;20.482;2023-04-16T13:33:41;4.05;;;1.48;;
21152;SDS011;10734;44.792;20.482;2023-04-16T13:36:12;2.25;;;1.23;;
21152;SDS011;10734;44.792;20.482;2023-04-16T13:38:42;3.65;;;1.25;;
21152;SDS011;10734;44.792;20.482;2023-04-16T13:41:12;2.38;;;1.17;;
21152;SDS011;10734;44.792;20.482;2023-04-16T13:43:40;2.28;;;1.50;;
21152;SDS011;10734;44.792;20.482;2023-04-16T13:46:10;2.08;;;1.02;;
21152;SDS011;10734;44.792;20.482;2023-04-16T13:48:38;1.70;;;1.00;;
21152;SDS011;10734;44.792;20.482;2023-04-16T13:51:07;2.53;;;1.13;;
21152;SDS011;10734;44.792;20.482;2023-04-16T13:53:34;5.20;;;1.40;;
21152;SDS011;10734;44.792;20.482;2023-04-16T13:56:08;1.92;;;1.25;;
21152;SDS011;10734;44.792;20.482;2023-04-16T13:58:38;2.47;;;1.38;;
21152;SDS011;10734;44.792;20.482;2023-04-16T14:01:10;2.20;;;1.00;;
21152;SDS011;10734;44.792;20.482;2023-04-16T14:06:10;1.98;;;1.10;;
21152;SDS011;10734;44.792;20.482;2023-04-16T14:08:39;2.97;;;1.15;;
21152;SDS011;10734;44.792;20.482;2023-04-16T14:11:07;3.92;;;1.05;;
21152;SDS011;10734;44.792;20.482;2023-04-16T14:13:35;2.55;;;1.02;;
21152;SDS011;10734;44.792;20.482;2023-04-16T14:16:02;3.65;;;1.30;;
21152;SDS011;10734;44.792;20.482;2023-04-16T14:18:30;2.42;;;1.13;;
21152;SDS011;10734;44.792;20.482;2023-04-16T14:20:57;1.73;;;1.10;;
21152;SDS011;10734;44.792;20.482;2023-04-16T14:23:24;5.07;;;1.55;;
21152;SDS011;10734;44.792;20.482;2023-04-16T14:25:52;2.92;;;1.48;;
21152;SDS011;10734;44.792;20.482;2023-04-16T14:28:25;1.50;;;1.05;;
21152;SDS011;10734;44.792;20.482;2023-04-16T14:30:53;3.13;;;1.38;;
21152;SDS011;10734;44.792;20.482;2023-04-16T14:33:21;3.13;;;1.02;;
21152;SDS011;10734;44.792;20.482;2023-04-16T14:35:47;3.75;;;0.90;;
21152;SDS011;10734;44.792;20.482;2023-04-16T14:38:22;1.73;;;1.02;;
21152;SDS011;10734;44.792;20.482;2023-04-16T14:40:50;0.80;;;0.73;;
21152;SDS011;10734;44.792;20.482;2023-04-16T14:43:22;1.95;;;1.00;;
21152;SDS011;10734;44.792;20.482;2023-04-16T14:48:25;1.45;;;1.00;;